createdAt,value
2017-10-05T08:36:52.255Z,656.00
2017-10-05T08:37:37.827Z,736.00
2017-10-05T08:38:38.151Z,736.00
2017-10-05T08:39:38.160Z,640.00
2017-10-05T08:41:15.338Z,732.00
2017-10-05T08:42:15.339Z,732.00
2017-10-05T08:43:15.351Z,788.00
2017-10-05T08:44:15.346Z,796.00
2017-10-05T08:45:15.361Z,604.00
2017-10-05T08:46:15.358Z,548.00
2017-10-05T11:35:32.594Z,6028.00
2017-10-05T11:36:32.599Z,5668.00
2017-10-05T11:37:32.605Z,5968.00
2017-10-05T11:38:32.611Z,5576.00
2017-10-05T11:39:32.619Z,5660.00
2017-10-05T11:40:32.627Z,5872.00
2017-10-05T11:41:32.635Z,6120.00
2017-10-05T11:42:32.641Z,6080.00
2017-10-05T11:43:32.649Z,6284.00
2017-10-05T11:44:32.659Z,6112.00
2017-10-05T11:45:32.668Z,6780.00
2017-10-05T11:46:32.676Z,6408.00
2017-10-05T11:47:32.685Z,6764.00
2017-10-05T11:48:32.693Z,6492.00
2017-10-05T11:49:32.704Z,6580.00
2017-10-05T11:50:32.713Z,6680.00
2017-10-05T11:51:32.722Z,6872.00
2017-10-05T11:52:32.732Z,6952.00
2017-10-05T11:53:32.742Z,6844.00
2017-10-05T11:54:32.753Z,6972.00
2017-10-05T11:55:32.762Z,6860.00
2017-10-05T11:56:32.772Z,7140.00
2017-10-05T11:57:32.783Z,7024.00
2017-10-05T11:58:32.792Z,7212.00
2017-10-05T11:59:32.803Z,7316.00
2017-10-05T12:00:32.815Z,7436.00
2017-10-05T12:01:32.825Z,7516.00
2017-10-05T12:02:32.836Z,7656.00
2017-10-05T12:03:32.845Z,7700.00
2017-10-05T12:04:32.857Z,7984.00
2017-10-05T12:05:32.866Z,8304.00
2017-10-05T12:06:32.879Z,8108.00
2017-10-05T12:07:32.889Z,8000.00
2017-10-05T12:08:32.900Z,8324.00
2017-10-05T12:09:32.911Z,8260.00
2017-10-05T12:10:32.922Z,8288.00
2017-10-05T12:11:32.937Z,8576.00
2017-10-05T12:12:32.945Z,8668.00
2017-10-05T12:13:32.956Z,8608.00
2017-10-05T12:14:32.969Z,8668.00
2017-10-05T12:15:32.980Z,8740.00
2017-10-05T12:16:32.990Z,8744.00
2017-10-05T12:17:33.001Z,8736.00
2017-10-05T12:18:33.013Z,8860.00
2017-10-05T12:19:33.025Z,8880.00
2017-10-05T12:20:33.036Z,8776.00
2017-10-05T12:21:33.052Z,8820.00
2017-10-05T12:22:33.059Z,9040.00
2017-10-05T12:23:33.071Z,9084.00
2017-10-05T12:24:33.083Z,9092.00
2017-10-05T12:25:33.095Z,9084.00
2017-10-05T12:26:33.105Z,9008.00
2017-10-05T12:27:33.118Z,9204.00
2017-10-05T12:28:33.129Z,9104.00
2017-10-05T12:29:33.142Z,9116.00
2017-10-05T12:30:33.154Z,9136.00
2017-10-05T12:31:33.164Z,9216.00
2017-10-05T12:32:33.175Z,9316.00
2017-10-05T12:33:33.187Z,9260.00
2017-10-05T12:34:33.199Z,9168.00
2017-10-05T12:35:33.211Z,9152.00
2017-10-05T12:36:33.222Z,9252.00
2017-10-05T12:37:33.234Z,9296.00
2017-10-05T12:38:33.248Z,9384.00
2017-10-05T12:39:33.261Z,9348.00
2017-10-05T12:40:33.269Z,9444.00
2017-10-05T12:41:33.283Z,9436.00
2017-10-05T12:42:33.294Z,9416.00
2017-10-05T12:43:33.305Z,9432.00
2017-10-05T12:44:33.319Z,9504.00
2017-10-05T12:45:33.330Z,9528.00
2017-10-05T12:46:33.344Z,9540.00
2017-10-05T12:47:33.354Z,9616.00
2017-10-05T12:48:33.368Z,9644.00
2017-10-05T12:49:33.380Z,9700.00
2017-10-05T12:50:33.391Z,9696.00
2017-10-05T12:51:33.403Z,9728.00
2017-10-05T12:52:33.416Z,9812.00
2017-10-05T12:53:33.428Z,9828.00
2017-10-05T12:54:33.440Z,9796.00
2017-10-05T12:55:33.455Z,9880.00
2017-10-05T12:56:33.466Z,9924.00
2017-10-05T12:57:33.478Z,9984.00
2017-10-05T12:58:33.490Z,10056.00
2017-10-05T12:59:33.504Z,10148.00
2017-10-05T13:00:33.515Z,10296.00
2017-10-05T13:01:33.533Z,10472.00
2017-10-05T13:02:33.540Z,10672.00
2017-10-05T13:03:33.552Z,10844.00
2017-10-05T13:04:33.566Z,11048.00
2017-10-05T13:05:33.577Z,11696.00
2017-10-05T13:06:33.591Z,12224.00
2017-10-05T13:07:33.603Z,11844.00
2017-10-05T13:08:33.615Z,11400.00
2017-10-05T13:09:33.628Z,11276.00
2017-10-05T13:10:33.640Z,11040.00
2017-10-05T13:11:33.650Z,10348.00
2017-10-05T13:12:33.663Z,11280.00
2017-10-05T13:13:33.676Z,11608.00
2017-10-05T13:14:33.687Z,9024.00
2017-10-05T13:15:33.698Z,10364.00
2017-10-05T13:16:33.710Z,11164.00
2017-10-05T13:17:33.724Z,11140.00
2017-10-05T13:18:33.735Z,11096.00
2017-10-05T13:19:33.747Z,11208.00
2017-10-05T13:20:33.759Z,11060.00
2017-10-05T13:21:33.770Z,10924.00
2017-10-05T13:22:33.784Z,11068.00
2017-10-05T13:23:33.795Z,10972.00
2017-10-05T13:24:33.807Z,10896.00
2017-10-05T13:25:33.819Z,10764.00
2017-10-05T13:26:33.830Z,10780.00
2017-10-05T13:27:33.841Z,10996.00
2017-10-05T13:28:33.853Z,10892.00
2017-10-05T13:29:33.867Z,10540.00
2017-10-05T13:30:33.877Z,10372.00
2017-10-05T13:31:33.888Z,10304.00
2017-10-05T13:32:33.901Z,10308.00
2017-10-05T13:33:33.913Z,10272.00
2017-10-05T13:34:33.925Z,10304.00
2017-10-05T13:35:33.936Z,10136.00
2017-10-05T13:36:33.948Z,9984.00
2017-10-05T13:37:33.961Z,9896.00
2017-10-05T13:38:33.992Z,9840.00
2017-10-05T13:39:33.984Z,9888.00
2017-10-05T13:40:33.995Z,9868.00
2017-10-05T13:41:34.008Z,9900.00
2017-10-05T13:42:34.020Z,9908.00
2017-10-05T13:43:34.030Z,9904.00
2017-10-05T13:44:34.042Z,9928.00
2017-10-05T13:45:34.054Z,9896.00
2017-10-05T13:46:34.066Z,9888.00
2017-10-05T13:47:34.084Z,9940.00
2017-10-05T13:48:34.089Z,9976.00
2017-10-05T13:49:34.101Z,9960.00
2017-10-05T13:50:34.113Z,9936.00
2017-10-05T13:51:34.127Z,9960.00
2017-10-05T13:52:34.141Z,9952.00
2017-10-05T13:53:34.152Z,9924.00
2017-10-05T13:54:34.160Z,9952.00
2017-10-05T13:55:34.173Z,9972.00
2017-10-05T13:56:34.184Z,10068.00
2017-10-05T13:57:34.197Z,8868.00
2017-10-05T13:58:34.207Z,9900.00
2017-10-05T13:59:34.219Z,9936.00
2017-10-05T14:00:34.231Z,9828.00
2017-10-05T14:01:34.242Z,9884.00
2017-10-05T14:02:34.255Z,7128.00
2017-10-05T14:03:34.266Z,9800.00
2017-10-05T14:04:34.279Z,9864.00
2017-10-05T14:05:34.292Z,9144.00
2017-10-05T14:06:34.302Z,9896.00
2017-10-05T14:07:34.313Z,9928.00
2017-10-05T14:08:34.324Z,10028.00
2017-10-05T14:09:34.336Z,9972.00
2017-10-05T14:10:34.349Z,3768.00
2017-10-05T14:11:34.363Z,6308.00
2017-10-05T14:12:34.370Z,2320.00
2017-10-05T14:13:34.382Z,10332.00
2017-10-05T14:14:34.395Z,8820.00
2017-10-05T14:15:34.405Z,8956.00
2017-10-05T14:16:34.417Z,2972.00
2017-10-05T14:17:34.429Z,9868.00
2017-10-05T14:18:34.440Z,3376.00
2017-10-05T14:19:34.451Z,7036.00
2017-10-05T14:20:34.460Z,9336.00
2017-10-05T14:21:34.473Z,8660.00
2017-10-05T14:22:34.484Z,9064.00
2017-10-05T14:23:34.494Z,8968.00
2017-10-05T14:24:34.504Z,8984.00
2017-10-05T14:25:34.515Z,8836.00
2017-10-05T14:26:34.529Z,8852.00
2017-10-05T14:27:34.538Z,8784.00
2017-10-05T14:28:34.549Z,8724.00
2017-10-05T14:29:34.559Z,8692.00
2017-10-05T14:30:34.577Z,8608.00
2017-10-05T14:31:34.581Z,8592.00
2017-10-05T14:32:34.594Z,8572.00
2017-10-05T14:33:34.603Z,8512.00
2017-10-05T14:34:34.615Z,8492.00
2017-10-05T14:35:34.626Z,8304.00
2017-10-05T14:36:34.636Z,8400.00
2017-10-05T14:37:34.647Z,8384.00
2017-10-05T14:38:34.660Z,8388.00
2017-10-05T14:39:34.669Z,8316.00
2017-10-05T14:40:34.684Z,8336.00
2017-10-05T14:41:34.692Z,8308.00
2017-10-05T14:42:34.704Z,8388.00
2017-10-05T14:43:34.725Z,8152.00
2017-10-05T14:44:34.726Z,8260.00
2017-10-05T14:45:34.735Z,8228.00
2017-10-05T14:46:34.747Z,8268.00
2017-10-05T14:47:34.781Z,8544.00
2017-10-05T14:48:34.769Z,5824.00
2017-10-05T14:49:34.781Z,8608.00
2017-10-05T14:50:34.791Z,2696.00
2017-10-05T14:51:34.802Z,3892.00
2017-10-05T14:52:34.814Z,2292.00
2017-10-05T14:53:34.824Z,1944.00
2017-10-05T14:54:34.835Z,2272.00
2017-10-05T14:55:34.846Z,2828.00
2017-10-05T14:56:34.856Z,1852.00
2017-10-05T14:57:34.867Z,4616.00
2017-10-05T14:58:34.878Z,5428.00
2017-10-05T14:59:34.888Z,1828.00
2017-10-05T15:00:34.899Z,1900.00
2017-10-05T15:01:34.910Z,1756.00
2017-10-05T15:02:34.924Z,1768.00
2017-10-05T15:03:34.929Z,2048.00
2017-10-05T15:04:34.939Z,1644.00
2017-10-05T15:05:34.950Z,4124.00
2017-10-05T15:06:34.960Z,1956.00
2017-10-05T15:07:34.968Z,1452.00
2017-10-05T15:08:34.985Z,7544.00
2017-10-05T15:09:34.988Z,1744.00
2017-10-05T15:10:35.004Z,1496.00
2017-10-05T15:11:35.006Z,1704.00
2017-10-05T15:12:35.022Z,1632.00
2017-10-05T15:13:35.027Z,1732.00
2017-10-05T15:14:35.041Z,1604.00
2017-10-05T15:15:35.046Z,2776.00
2017-10-05T15:16:35.062Z,1548.00
2017-10-05T15:17:35.065Z,1436.00
2017-10-05T15:18:35.073Z,3316.00
2017-10-05T15:19:35.083Z,1708.00
2017-10-05T15:20:35.116Z,1288.00
2017-10-05T15:21:35.100Z,1456.00
2017-10-05T15:22:35.114Z,1644.00
2017-10-05T15:23:35.118Z,1224.00
2017-10-05T15:24:35.132Z,1232.00
2017-10-05T15:25:35.136Z,1188.00
2017-10-05T15:26:35.147Z,1168.00
2017-10-05T15:27:35.155Z,1116.00
2017-10-05T15:28:35.171Z,1068.00
2017-10-05T15:29:35.173Z,1068.00
2017-10-05T15:30:35.181Z,1068.00
2017-10-05T15:31:35.188Z,1072.00
2017-10-05T15:32:35.202Z,1128.00
2017-10-05T15:33:35.206Z,1188.00
2017-10-05T15:34:35.215Z,1220.00
2017-10-05T15:35:35.223Z,1224.00
2017-10-05T15:36:35.233Z,1232.00
2017-10-05T15:37:35.241Z,1284.00
2017-10-05T15:38:35.253Z,1308.00
2017-10-05T15:39:35.258Z,1324.00
2017-10-05T15:40:35.268Z,1684.00
2017-10-05T15:41:35.276Z,2276.00
2017-10-05T15:42:35.288Z,1412.00
2017-10-05T15:43:35.292Z,1912.00
2017-10-05T15:44:35.301Z,1676.00
2017-10-05T15:45:35.309Z,2012.00
2017-10-05T15:46:35.318Z,1140.00
2017-10-05T15:47:35.324Z,1080.00
2017-10-05T15:48:35.337Z,1000.00
2017-10-05T15:49:35.343Z,932.00
2017-10-05T15:50:35.357Z,932.00
2017-10-05T15:51:35.359Z,920.00
2017-10-05T15:52:35.371Z,868.00
2017-10-05T15:53:35.378Z,844.00
2017-10-05T15:54:35.390Z,824.00
2017-10-05T15:55:35.394Z,788.00
2017-10-05T15:56:35.404Z,732.00
2017-10-05T15:57:35.409Z,672.00
2017-10-05T15:58:35.423Z,588.00
2017-10-05T15:59:35.425Z,516.00
2017-10-05T16:00:35.437Z,468.00
2017-10-05T16:01:35.442Z,444.00
2017-10-05T16:02:35.451Z,412.00
2017-10-05T16:03:35.458Z,380.00
2017-10-05T16:04:35.471Z,328.00
2017-10-05T16:05:35.473Z,276.00
2017-10-05T16:06:35.489Z,244.00
2017-10-05T16:07:35.488Z,228.00
2017-10-05T16:08:35.499Z,212.00
2017-10-05T16:09:35.506Z,200.00
2017-10-05T16:10:35.520Z,188.00
2017-10-05T16:11:35.522Z,188.00
2017-10-05T16:12:35.534Z,180.00
2017-10-05T16:13:35.536Z,184.00
2017-10-05T16:14:35.558Z,192.00
2017-10-05T16:15:35.552Z,208.00
2017-10-05T16:16:35.565Z,212.00
2017-10-05T16:17:35.569Z,188.00
2017-10-05T16:18:35.583Z,152.00
2017-10-05T16:19:35.583Z,132.00
2017-10-05T16:20:35.594Z,128.00
2017-10-05T16:21:35.600Z,132.00
2017-10-05T16:22:35.614Z,132.00
2017-10-05T16:23:35.615Z,132.00
2017-10-05T16:24:35.628Z,136.00
2017-10-05T16:25:35.630Z,132.00
2017-10-05T16:26:35.639Z,120.00
2017-10-05T16:27:35.646Z,112.00
2017-10-05T16:28:35.655Z,104.00
2017-10-05T16:29:35.661Z,108.00
2017-10-05T16:30:35.673Z,100.00
2017-10-05T16:31:35.676Z,92.00
2017-10-05T16:32:35.689Z,84.00
2017-10-05T16:33:35.692Z,80.00
2017-10-05T16:34:35.700Z,92.00
2017-10-05T16:35:35.706Z,104.00
2017-10-05T16:36:35.714Z,100.00
2017-10-05T16:37:35.722Z,96.00
2017-10-05T16:38:35.749Z,92.00
2017-10-05T16:39:35.736Z,88.00
2017-10-05T16:40:35.744Z,80.00
2017-10-05T16:41:35.752Z,76.00
2017-10-05T16:42:35.766Z,68.00
2017-10-05T16:43:35.766Z,68.00
2017-10-05T16:44:35.782Z,64.00
2017-10-05T16:45:35.782Z,60.00
2017-10-05T16:46:35.789Z,56.00
2017-10-05T16:47:35.797Z,56.00
2017-10-05T16:48:35.804Z,56.00
2017-10-05T16:49:35.812Z,48.00
2017-10-05T16:50:35.820Z,52.00
2017-10-05T16:51:35.826Z,48.00
2017-10-05T16:52:35.840Z,44.00
2017-10-05T16:53:35.841Z,40.00
2017-10-05T16:54:35.849Z,40.00
2017-10-05T16:55:35.854Z,36.00
2017-10-05T16:56:35.863Z,36.00
2017-10-05T16:57:35.870Z,32.00
2017-10-05T16:58:35.884Z,32.00
2017-10-05T16:59:35.883Z,36.00
2017-10-05T17:00:35.894Z,32.00
2017-10-05T17:01:35.900Z,28.00
2017-10-05T17:02:35.916Z,32.00
2017-10-05T17:03:35.914Z,32.00
2017-10-05T17:04:35.927Z,32.00
2017-10-05T17:05:35.928Z,28.00
2017-10-05T17:06:35.937Z,28.00
2017-10-05T17:07:35.941Z,28.00
2017-10-05T17:08:35.953Z,28.00
2017-10-05T17:09:35.957Z,32.00
2017-10-05T17:10:35.968Z,28.00
2017-10-05T17:11:35.972Z,28.00
2017-10-05T17:12:35.987Z,28.00
2017-10-05T17:13:35.987Z,28.00
2017-10-05T17:14:35.996Z,28.00
2017-10-05T17:15:35.999Z,28.00
2017-10-05T17:16:36.012Z,28.00
2017-10-05T17:17:36.014Z,28.00
2017-10-05T17:18:36.030Z,28.00
2017-10-05T17:19:36.027Z,28.00
2017-10-05T17:20:36.035Z,28.00
2017-10-05T17:21:36.045Z,28.00
2017-10-05T17:22:36.057Z,28.00
2017-10-05T17:23:36.059Z,28.00
2017-10-05T17:24:36.067Z,28.00
2017-10-05T17:25:36.097Z,28.00
2017-10-05T17:26:36.083Z,28.00
2017-10-05T17:27:36.084Z,28.00
2017-10-05T17:28:36.092Z,28.00
2017-10-05T17:29:36.100Z,28.00
2017-10-05T17:30:36.107Z,24.00
2017-10-05T17:31:36.118Z,28.00
2017-10-05T17:32:36.126Z,28.00
2017-10-05T17:33:36.128Z,28.00
2017-10-05T17:34:36.138Z,24.00
2017-10-05T17:35:36.143Z,28.00
2017-10-05T17:36:36.153Z,28.00
2017-10-05T17:37:36.157Z,28.00
2017-10-05T17:38:36.169Z,28.00
2017-10-05T17:39:36.171Z,28.00
2017-10-05T17:40:36.186Z,28.00
2017-10-05T17:41:36.184Z,28.00
2017-10-05T17:42:36.192Z,28.00
2017-10-05T17:43:36.199Z,28.00
2017-10-05T17:44:36.209Z,28.00
2017-10-05T17:45:36.214Z,28.00
2017-10-05T17:46:36.228Z,28.00
2017-10-05T17:47:36.228Z,28.00
2017-10-05T17:48:36.242Z,28.00
2017-10-05T17:49:36.241Z,28.00
2017-10-05T17:50:36.253Z,28.00
2017-10-05T17:51:36.254Z,28.00
2017-10-05T17:52:36.264Z,28.00
2017-10-05T17:53:36.270Z,28.00
2017-10-05T17:54:36.286Z,28.00
2017-10-05T17:55:36.284Z,28.00
2017-10-05T17:56:36.293Z,28.00
2017-10-05T17:57:36.299Z,28.00
2017-10-05T17:58:36.312Z,28.00
2017-10-05T17:59:36.313Z,28.00
2017-10-05T18:00:36.323Z,28.00
2017-10-05T18:01:36.327Z,28.00
2017-10-05T18:02:36.339Z,28.00
2017-10-05T18:03:36.339Z,28.00
2017-10-05T18:04:36.347Z,28.00
2017-10-05T18:05:36.357Z,28.00
2017-10-05T18:06:36.369Z,28.00
2017-10-05T18:07:36.367Z,28.00
2017-10-05T18:08:36.376Z,28.00
2017-10-05T18:09:36.383Z,28.00
2017-10-05T18:10:36.395Z,28.00
2017-10-05T18:11:36.397Z,28.00
2017-10-05T18:12:36.403Z,28.00
2017-10-05T18:13:36.410Z,28.00
2017-10-05T18:14:36.426Z,28.00
2017-10-05T18:15:36.424Z,28.00
2017-10-05T18:16:36.433Z,28.00
2017-10-05T18:17:36.440Z,28.00
2017-10-05T18:18:36.452Z,28.00
2017-10-05T18:19:36.452Z,28.00
2017-10-05T18:20:36.463Z,28.00
2017-10-05T18:21:36.467Z,28.00
2017-10-05T18:22:36.476Z,28.00
2017-10-05T18:23:36.491Z,28.00
2017-10-05T18:24:36.493Z,28.00
2017-10-05T18:25:36.495Z,28.00
2017-10-05T18:26:36.501Z,28.00
2017-10-05T18:27:36.508Z,28.00
2017-10-05T18:28:36.517Z,28.00
2017-10-05T18:29:36.527Z,28.00
2017-10-05T18:30:36.531Z,28.00
2017-10-05T18:31:36.535Z,28.00
2017-10-05T18:32:36.545Z,28.00
2017-10-05T18:33:36.553Z,28.00
2017-10-05T18:34:36.556Z,28.00
2017-10-05T18:35:36.562Z,28.00
2017-10-05T18:36:36.569Z,28.00
2017-10-05T18:37:36.574Z,28.00
2017-10-05T18:38:36.582Z,28.00
2017-10-05T18:39:36.587Z,28.00
2017-10-05T18:40:36.594Z,28.00
2017-10-05T18:41:36.601Z,28.00
2017-10-05T18:42:36.607Z,28.00
2017-10-05T18:43:36.611Z,28.00
2017-10-05T18:44:36.619Z,28.00
2017-10-05T18:45:36.627Z,28.00
2017-10-05T18:46:36.633Z,28.00
2017-10-05T18:47:36.637Z,28.00
2017-10-05T18:48:36.651Z,28.00
2017-10-05T18:49:36.651Z,28.00
2017-10-05T18:50:36.662Z,28.00
2017-10-05T18:51:36.663Z,28.00
2017-10-05T18:52:36.670Z,28.00
2017-10-05T18:53:36.674Z,28.00
2017-10-05T18:54:36.680Z,28.00
2017-10-05T18:55:36.686Z,28.00
2017-10-05T18:56:36.694Z,28.00
2017-10-05T18:57:36.698Z,28.00
2017-10-05T18:58:36.704Z,28.00
2017-10-05T18:59:36.709Z,28.00
2017-10-05T19:00:36.715Z,28.00
2017-10-05T19:01:36.725Z,28.00
2017-10-05T19:02:36.727Z,28.00
2017-10-05T19:03:36.732Z,28.00
2017-10-05T19:04:36.736Z,28.00
2017-10-05T19:05:36.742Z,28.00
2017-10-05T19:06:36.748Z,28.00
2017-10-05T19:07:36.752Z,28.00
2017-10-05T19:08:36.758Z,28.00
2017-10-05T19:09:36.764Z,28.00
2017-10-05T19:10:36.769Z,28.00
2017-10-05T19:11:36.774Z,28.00
2017-10-05T19:12:36.779Z,28.00
2017-10-05T19:13:36.784Z,28.00
2017-10-05T19:14:36.792Z,28.00
2017-10-05T19:15:36.798Z,28.00
2017-10-05T19:16:36.800Z,28.00
2017-10-05T19:17:36.805Z,28.00
2017-10-05T19:18:36.816Z,28.00
2017-10-05T19:19:36.815Z,28.00
2017-10-05T19:20:36.822Z,28.00
2017-10-05T19:21:36.825Z,28.00
2017-10-05T19:22:36.831Z,28.00
2017-10-05T19:23:36.840Z,28.00
2017-10-05T19:24:36.839Z,28.00
2017-10-05T19:25:36.844Z,28.00
2017-10-05T19:26:36.849Z,28.00
2017-10-05T19:27:36.853Z,28.00
2017-10-05T19:28:36.857Z,28.00
2017-10-05T19:29:36.862Z,28.00
2017-10-05T19:30:36.867Z,28.00
2017-10-05T19:31:36.872Z,28.00
2017-10-05T19:32:36.875Z,28.00
2017-10-05T19:33:36.879Z,28.00
2017-10-05T19:34:36.885Z,28.00
2017-10-05T19:35:36.888Z,28.00
2017-10-05T19:36:36.893Z,28.00
2017-10-05T19:37:36.897Z,28.00
2017-10-05T19:38:36.901Z,28.00
2017-10-05T19:39:36.905Z,28.00
2017-10-05T19:40:36.909Z,28.00
2017-10-05T19:41:36.913Z,28.00
2017-10-05T19:42:36.916Z,28.00
2017-10-05T19:43:36.927Z,28.00
2017-10-05T19:44:36.924Z,28.00
2017-10-05T19:45:36.928Z,28.00
2017-10-05T19:46:36.932Z,28.00
2017-10-05T19:47:36.935Z,28.00
2017-10-05T19:48:36.938Z,28.00
2017-10-05T19:49:36.942Z,28.00
2017-10-05T19:50:36.949Z,28.00
2017-10-05T19:51:36.948Z,28.00
2017-10-05T19:52:36.952Z,28.00
2017-10-05T19:53:36.956Z,28.00
2017-10-05T19:54:36.959Z,28.00
2017-10-05T19:55:36.963Z,28.00
2017-10-05T19:56:36.965Z,28.00
2017-10-05T19:57:36.968Z,28.00
2017-10-05T19:58:36.973Z,28.00
2017-10-05T19:59:36.975Z,28.00
2017-10-05T20:00:37.002Z,28.00
2017-10-05T20:01:36.982Z,28.00
2017-10-05T20:02:36.986Z,28.00
2017-10-05T20:03:36.988Z,28.00
2017-10-05T20:04:36.991Z,28.00
2017-10-05T20:05:36.995Z,28.00
2017-10-05T20:06:37.000Z,28.00
2017-10-05T20:07:37.001Z,28.00
2017-10-05T20:08:37.003Z,28.00
2017-10-05T20:09:37.007Z,28.00
2017-10-05T20:10:37.010Z,28.00
2017-10-05T20:11:37.012Z,32.00
2017-10-05T20:12:37.016Z,36.00
2017-10-05T20:13:37.019Z,32.00
2017-10-05T20:14:37.022Z,32.00
2017-10-05T20:15:37.024Z,36.00
2017-10-05T20:16:37.026Z,36.00
2017-10-05T20:17:37.029Z,4.00
2017-10-05T20:18:37.033Z,0.00
2017-10-05T20:19:37.035Z,0.00
2017-10-05T20:20:37.037Z,0.00
2017-10-05T20:21:37.040Z,0.00
2017-10-05T20:22:37.044Z,0.00
2017-10-05T20:23:37.045Z,0.00
2017-10-05T20:24:37.049Z,0.00
2017-10-05T20:25:37.050Z,0.00
2017-10-05T20:26:37.054Z,0.00
2017-10-05T20:27:37.056Z,0.00
2017-10-05T20:28:37.060Z,0.00
2017-10-05T20:29:37.060Z,0.00
2017-10-05T20:30:37.065Z,0.00
2017-10-05T20:31:37.066Z,0.00
2017-10-05T20:32:37.069Z,0.00
2017-10-05T20:33:37.073Z,0.00
2017-10-05T20:34:37.076Z,0.00
2017-10-05T20:35:37.080Z,0.00
2017-10-05T20:36:37.079Z,0.00
2017-10-05T20:37:37.082Z,0.00
2017-10-05T20:38:37.088Z,0.00
2017-10-05T20:39:37.090Z,0.00
2017-10-05T20:40:37.088Z,0.00
2017-10-05T20:41:37.093Z,0.00
2017-10-05T20:42:37.095Z,0.00
2017-10-05T20:43:37.097Z,0.00
2017-10-05T20:44:37.100Z,0.00
2017-10-05T20:45:37.104Z,0.00
2017-10-05T20:46:37.105Z,0.00
2017-10-05T20:47:37.107Z,0.00
2017-10-05T20:48:37.109Z,0.00
2017-10-05T20:49:37.117Z,0.00
2017-10-05T20:50:37.115Z,0.00
2017-10-05T20:51:37.122Z,0.00
2017-10-05T20:52:37.119Z,0.00
2017-10-05T20:53:37.122Z,0.00
2017-10-05T20:54:37.124Z,0.00
2017-10-05T20:55:37.125Z,0.00
2017-10-05T20:56:37.129Z,0.00
2017-10-05T20:57:37.136Z,0.00
2017-10-05T20:58:37.135Z,0.00
2017-10-05T20:59:37.134Z,0.00
2017-10-05T21:00:37.137Z,0.00
2017-10-05T21:01:37.139Z,0.00
2017-10-05T21:02:37.141Z,0.00
2017-10-05T21:03:37.142Z,0.00
2017-10-05T21:04:37.145Z,0.00
2017-10-05T21:05:37.147Z,0.00
2017-10-05T21:06:37.149Z,0.00
2017-10-05T21:07:37.150Z,0.00
2017-10-05T21:08:37.153Z,0.00
2017-10-05T21:09:37.154Z,0.00
2017-10-05T21:10:37.156Z,0.00
2017-10-05T21:11:37.156Z,0.00
2017-10-05T21:12:37.159Z,0.00
2017-10-05T21:13:37.160Z,0.00
2017-10-05T21:14:37.163Z,0.00
2017-10-05T21:15:37.163Z,0.00
2017-10-05T21:16:37.165Z,0.00
2017-10-05T21:17:37.167Z,0.00
2017-10-05T21:18:37.172Z,0.00
2017-10-05T21:19:37.170Z,0.00
2017-10-05T21:20:37.171Z,0.00
2017-10-05T21:21:37.174Z,0.00
2017-10-05T21:22:37.173Z,0.00
2017-10-05T21:23:37.176Z,0.00
2017-10-05T21:24:37.179Z,0.00
2017-10-05T21:25:37.179Z,0.00
2017-10-05T21:26:37.182Z,0.00
2017-10-05T21:27:37.181Z,0.00
2017-10-05T21:28:37.182Z,0.00
2017-10-05T21:29:37.184Z,0.00
2017-10-05T21:30:37.186Z,0.00
2017-10-05T21:31:37.187Z,0.00
2017-10-05T21:32:37.189Z,0.00
2017-10-05T21:33:37.191Z,0.00
2017-10-05T21:34:37.190Z,0.00
2017-10-05T21:35:37.192Z,0.00
2017-10-05T21:36:37.194Z,0.00
2017-10-05T21:37:37.195Z,0.00
2017-10-05T21:38:37.197Z,0.00
2017-10-05T21:39:37.198Z,0.00
2017-10-05T21:40:37.199Z,0.00
2017-10-05T21:41:37.200Z,0.00
2017-10-05T21:42:37.202Z,0.00
2017-10-05T21:43:37.203Z,0.00
2017-10-05T21:44:37.204Z,0.00
2017-10-05T21:45:37.205Z,0.00
2017-10-05T21:46:37.207Z,0.00
2017-10-05T21:47:37.208Z,0.00
2017-10-05T21:48:37.210Z,0.00
2017-10-05T21:49:37.209Z,0.00
2017-10-05T21:50:37.218Z,0.00
2017-10-05T21:51:37.212Z,0.00
2017-10-05T21:52:37.219Z,0.00
2017-10-05T21:53:37.218Z,0.00
2017-10-05T21:54:37.221Z,0.00
2017-10-05T21:55:37.218Z,0.00
2017-10-05T21:56:37.219Z,0.00
2017-10-05T21:57:37.222Z,0.00
2017-10-05T21:58:37.222Z,0.00
2017-10-05T21:59:37.224Z,0.00
2017-10-05T22:00:37.224Z,0.00
2017-10-05T22:01:37.227Z,0.00
2017-10-05T22:02:37.229Z,0.00
2017-10-05T22:03:37.229Z,0.00
2017-10-05T22:04:37.232Z,0.00
2017-10-05T22:05:37.231Z,0.00
2017-10-05T22:06:37.234Z,0.00
2017-10-05T22:07:37.235Z,0.00
2017-10-05T22:08:37.236Z,0.00
2017-10-05T22:09:37.237Z,0.00
2017-10-05T22:10:37.240Z,0.00
2017-10-05T22:11:37.240Z,0.00
2017-10-05T22:12:37.242Z,0.00
2017-10-05T22:13:37.243Z,0.00
2017-10-05T22:14:37.245Z,0.00
2017-10-05T22:15:37.245Z,0.00
2017-10-05T22:16:37.248Z,0.00
2017-10-05T22:17:37.248Z,0.00
2017-10-05T22:18:37.250Z,0.00
2017-10-05T22:19:37.251Z,0.00
2017-10-05T22:20:37.253Z,0.00
2017-10-05T22:21:37.254Z,0.00
2017-10-05T22:22:37.255Z,0.00
2017-10-05T22:23:37.255Z,0.00
2017-10-05T22:24:37.257Z,0.00
2017-10-05T22:25:37.259Z,0.00
2017-10-05T22:26:37.261Z,0.00
2017-10-05T22:27:37.261Z,0.00
2017-10-05T22:28:37.262Z,0.00
2017-10-05T22:29:37.264Z,0.00
2017-10-05T22:30:37.266Z,0.00
2017-10-05T22:31:37.267Z,0.00
2017-10-05T22:32:37.268Z,0.00
2017-10-05T22:33:37.271Z,0.00
2017-10-05T22:34:37.269Z,0.00
2017-10-05T22:35:37.270Z,0.00
2017-10-05T22:36:37.272Z,0.00
2017-10-05T22:37:37.274Z,0.00
2017-10-05T22:38:37.276Z,0.00
2017-10-05T22:39:37.276Z,0.00
2017-10-05T22:40:37.278Z,0.00
2017-10-05T22:41:37.279Z,0.00
2017-10-05T22:42:37.281Z,0.00
2017-10-05T22:43:37.289Z,0.00
2017-10-05T22:44:37.283Z,0.00
2017-10-05T22:45:37.285Z,0.00
2017-10-05T22:46:37.286Z,0.00
2017-10-05T22:47:37.287Z,0.00
2017-10-05T22:48:37.288Z,0.00
2017-10-05T22:49:37.290Z,0.00
2017-10-05T22:50:37.289Z,0.00
2017-10-05T22:51:37.291Z,0.00
2017-10-05T22:52:37.292Z,0.00
2017-10-05T22:53:37.293Z,0.00
2017-10-05T22:54:37.295Z,0.00
2017-10-05T22:55:37.296Z,0.00
2017-10-05T22:56:37.297Z,0.00
2017-10-05T22:57:37.298Z,0.00
2017-10-05T22:58:37.300Z,0.00
2017-10-05T22:59:37.306Z,0.00
2017-10-05T23:00:37.300Z,0.00
2017-10-05T23:01:37.303Z,0.00
2017-10-05T23:02:37.303Z,0.00
2017-10-05T23:03:37.303Z,0.00
2017-10-05T23:04:37.304Z,0.00
2017-10-05T23:05:37.307Z,0.00
2017-10-05T23:06:37.308Z,0.00
2017-10-05T23:07:37.309Z,0.00
2017-10-05T23:08:37.309Z,0.00
2017-10-05T23:09:37.308Z,0.00
2017-10-05T23:10:37.311Z,0.00
2017-10-05T23:11:37.312Z,0.00
2017-10-05T23:12:37.313Z,0.00
2017-10-05T23:13:37.315Z,0.00
2017-10-05T23:14:37.316Z,0.00
2017-10-05T23:15:37.316Z,0.00
2017-10-05T23:16:37.317Z,0.00
2017-10-05T23:17:37.318Z,0.00
2017-10-05T23:18:37.319Z,0.00
2017-10-05T23:19:37.319Z,0.00
2017-10-05T23:20:37.319Z,0.00
2017-10-05T23:21:37.321Z,0.00
2017-10-05T23:22:37.324Z,0.00
2017-10-05T23:23:37.323Z,0.00
2017-10-05T23:24:37.323Z,0.00
2017-10-05T23:25:37.326Z,0.00
2017-10-05T23:26:37.326Z,0.00
2017-10-05T23:27:37.327Z,0.00
2017-10-05T23:28:37.328Z,0.00
2017-10-05T23:29:37.329Z,0.00
2017-10-05T23:30:37.329Z,0.00
2017-10-05T23:31:37.329Z,0.00
2017-10-05T23:32:37.332Z,0.00
2017-10-05T23:33:37.333Z,0.00
2017-10-05T23:34:37.333Z,0.00
2017-10-05T23:35:37.334Z,0.00
2017-10-05T23:36:37.336Z,0.00
2017-10-05T23:37:37.336Z,0.00
2017-10-05T23:38:37.336Z,0.00
2017-10-05T23:39:37.336Z,0.00
2017-10-05T23:40:37.336Z,0.00
2017-10-05T23:41:37.338Z,0.00
2017-10-05T23:42:37.339Z,0.00
2017-10-05T23:43:37.339Z,0.00
2017-10-05T23:44:37.341Z,0.00
2017-10-05T23:45:37.341Z,0.00
2017-10-05T23:46:37.341Z,0.00
2017-10-05T23:47:37.346Z,0.00
2017-10-05T23:48:37.343Z,0.00
2017-10-05T23:49:37.343Z,0.00
2017-10-05T23:50:37.344Z,0.00
2017-10-05T23:51:37.344Z,0.00
2017-10-05T23:52:37.345Z,0.00
2017-10-05T23:53:37.346Z,0.00
2017-10-05T23:54:37.352Z,0.00
2017-10-05T23:55:37.352Z,0.00
2017-10-05T23:56:37.348Z,0.00
2017-10-05T23:57:37.349Z,0.00
2017-10-05T23:58:37.350Z,0.00
2017-10-05T23:59:37.349Z,0.00
